Cape Romanzof LRRS Airport Cape Romanzof US
ICAO: PACZ
IATA:
Category: Medium
Scheduled Services:

Elevation: 464 ft
TransAlt. 18000 ft.

Airport Communications:
ANCHORAGE ARTCC:124.5
ANCHORAGE CNTR:132.5
KENAI RDO:122.1
INFO:126.2

PACZ Zoom In..

If you have problems with the map follow the link
https://www.worldairports.se/pages/airport.php?
ICAO=PACZ

Runways:

(A) RW 02 length 3925 ft width 161 ft
---- / hdg 16

(B) RW 20 length 3925 ft width 161 ft
---- / hdg 196

Location; PACZ
Day. 22 / Time. 11.08 Zulu
* Altimeter: 29.64
* Temperature: -12° c. -10.4°f.
* Wind from: 300° Speed 08 kn.
Dewpoint: -13° c.
Visibility: 10 Statute Miles.
Clouds: Broken 1000 ft.

PACZ 221108Z AUTO 30008KT 10SM BKN010 M12/M13 A2964 RMK AO2 SLP049


Wind From 300°
Speed 08 kn.

 
 
jpsmedia worldairports.se 2020   terms of use